Time;durP1;ratioP1;P1;durP2;ratioP2;P2;SDS_P1;SDS_P2;PMS_P1;PMS_P2;Temp;Humidity;BMP_temperature;BMP_pressure;BME280_temperature;BME280_humidity;BME280_pressure;Samples;Min_cycle;Max_cycle;Signal;HPM_P1;HPM_P2
2023/12/27 00:00:03;;;;;;;13.00;2.85;;;3.30;99.90;;;;;;5052660;28;20080;-46
2023/12/27 00:02:29;;;;;;;7.43;1.80;;;3.80;99.90;;;;;;5052008;28;20120;-46
2023/12/27 00:04:55;;;;;;;10.45;1.80;;;4.20;99.90;;;;;;5051263;28;20206;-45
2023/12/27 00:07:20;;;;;;;7.03;1.70;;;3.60;99.90;;;;;;5051006;28;20053;-46
2023/12/27 00:09:46;;;;;;;8.10;1.65;;;3.30;99.90;;;;;;5052786;28;20032;-47
2023/12/27 00:12:13;;;;;;;9.32;1.95;;;4.10;99.90;;;;;;5052540;28;20186;-46
2023/12/27 00:14:39;;;;;;;13.43;2.10;;;4.00;99.90;;;;;;5051933;28;20037;-47
2023/12/27 00:17:05;;;;;;;14.98;2.83;;;3.60;99.90;;;;;;5052356;28;20496;-45
2023/12/27 00:19:31;;;;;;;9.07;2.35;;;4.00;99.90;;;;;;5052116;28;20124;-46
2023/12/27 00:21:57;;;;;;;12.45;2.30;;;3.90;99.90;;;;;;5052115;28;20170;-45
2023/12/27 00:24:22;;;;;;;29.02;4.82;;;3.20;99.90;;;;;;5050821;28;20120;-46
2023/12/27 00:26:48;;;;;;;13.93;2.28;;;3.70;99.90;;;;;;5051746;28;20123;-46
2023/12/27 00:29:13;;;;;;;11.43;3.00;;;3.80;99.90;;;;;;5051910;28;20509;-49
2023/12/27 00:31:39;;;;;;;10.10;2.33;;;3.60;99.90;;;;;;5050359;28;20040;-47
2023/12/27 00:34:05;;;;;;;7.50;2.13;;;3.40;99.90;;;;;;5051670;28;20072;-45
2023/12/27 00:36:30;;;;;;;11.90;3.65;;;3.70;99.90;;;;;;5052451;28;20037;-46
2023/12/27 00:38:56;;;;;;;10.38;2.53;;;3.70;99.90;;;;;;5051066;28;20392;-45
2023/12/27 00:41:22;;;;;;;10.30;2.58;;;3.50;99.90;;;;;;5051912;28;20041;-46
2023/12/27 00:43:48;;;;;;;13.15;3.08;;;2.90;99.90;;;;;;5051613;28;20047;-46
2023/12/27 00:46:13;;;;;;;10.02;2.50;;;3.10;99.90;;;;;;5051600;28;20041;-47
2023/12/27 00:48:39;;;;;;;11.32;3.58;;;2.80;99.90;;;;;;5051809;28;20095;-46
2023/12/27 00:51:05;;;;;;;11.48;2.40;;;3.00;99.90;;;;;;5062233;28;20035;-46
2023/12/27 00:53:31;;;;;;;11.73;2.78;;;2.70;99.90;;;;;;5071560;28;20096;-45
2023/12/27 00:55:57;;;;;;;10.32;2.58;;;2.80;99.90;;;;;;5071627;28;20055;-45
2023/12/27 00:58:22;;;;;;;9.98;2.13;;;2.70;99.90;;;;;;5071560;28;20396;-46
2023/12/27 01:00:48;;;;;;;11.20;2.28;;;2.70;99.90;;;;;;5071589;28;20051;-45
2023/12/27 01:03:14;;;;;;;8.35;2.08;;;3.30;99.90;;;;;;5071778;28;20044;-46
2023/12/27 01:05:39;;;;;;;9.43;2.80;;;3.00;99.90;;;;;;5071545;28;20444;-45
2023/12/27 01:08:05;;;;;;;13.25;2.25;;;2.60;99.90;;;;;;5071455;28;20511;-46
2023/12/27 01:10:31;;;;;;;7.90;2.13;;;3.50;99.90;;;;;;5071299;28;20040;-45
2023/12/27 01:12:56;;;;;;;10.73;2.33;;;2.60;99.90;;;;;;5071339;28;20162;-45
2023/12/27 01:15:22;;;;;;;8.75;2.58;;;2.50;99.90;;;;;;5073244;28;20116;-46
2023/12/27 01:17:48;;;;;;;11.35;2.50;;;2.40;99.90;;;;;;5076052;28;20052;-48
2023/12/27 01:20:14;;;;;;;9.05;1.90;;;2.50;99.90;;;;;;5075506;28;20520;-45
2023/12/27 01:22:40;;;;;;;10.10;2.42;;;2.50;99.90;;;;;;5075498;28;20450;-45
2023/12/27 01:25:06;;;;;;;8.52;2.05;;;2.60;99.90;;;;;;5075259;28;20045;-50
2023/12/27 01:27:32;;;;;;;8.95;2.28;;;3.40;99.90;;;;;;5075139;28;20055;-46
2023/12/27 01:29:57;;;;;;;8.38;2.65;;;3.20;99.90;;;;;;5075329;28;20041;-50
2023/12/27 01:32:23;;;;;;;10.43;2.13;;;3.30;99.90;;;;;;5075406;28;20051;-49
2023/12/27 01:34:48;;;;;;;7.18;2.45;;;2.40;99.90;;;;;;5075396;28;20041;-51
2023/12/27 01:37:14;;;;;;;7.88;1.83;;;2.40;99.90;;;;;;5075033;28;20102;-48
2023/12/27 01:39:40;;;;;;;13.35;2.20;;;2.90;99.90;;;;;;5074997;28;20059;-47
2023/12/27 01:42:05;;;;;;;12.52;3.22;;;3.20;99.90;;;;;;5074048;28;20041;-48
2023/12/27 01:44:31;;;;;;;14.57;2.33;;;2.50;99.90;;;;;;5074900;28;20111;-47
2023/12/27 01:46:57;;;;;;;15.43;2.90;;;3.30;99.90;;;;;;5074771;28;20048;-49
2023/12/27 01:49:23;;;;;;;10.68;1.98;;;3.30;99.90;;;;;;5074760;28;20566;-46
2023/12/27 01:51:49;;;;;;;10.82;1.95;;;2.40;99.90;;;;;;5074782;28;20048;-49
2023/12/27 01:54:15;;;;;;;8.15;2.30;;;3.30;99.90;;;;;;5074790;28;20033;-48
2023/12/27 01:56:44;;;;;;;11.75;2.13;;;2.30;99.90;;;;;;5074539;28;20507;-50
2023/12/27 01:59:11;;;;;;;9.32;2.38;;;3.00;99.90;;;;;;5074901;28;20114;-48
2023/12/27 02:01:37;;;;;;;9.23;2.67;;;3.20;99.90;;;;;;5074581;28;20049;-47
2023/12/27 02:04:03;;;;;;;8.68;2.45;;;3.20;99.90;;;;;;5074776;28;20063;-47
2023/12/27 02:06:29;;;;;;;12.40;1.95;;;2.20;99.90;;;;;;5074373;28;20484;-49
2023/12/27 02:08:55;;;;;;;10.57;2.17;;;2.40;99.90;;;;;;5074356;28;20037;-46
2023/12/27 02:11:21;;;;;;;10.05;1.85;;;2.50;99.90;;;;;;5074221;28;20036;-50
2023/12/27 02:13:47;;;;;;;11.60;2.53;;;2.60;99.90;;;;;;5074534;28;20047;-46
2023/12/27 02:16:14;;;;;;;8.90;2.83;;;2.20;99.90;;;;;;5074400;28;20392;-45
2023/12/27 02:18:40;;;;;;;9.20;1.90;;;3.10;99.90;;;;;;5074573;28;20051;-46
2023/12/27 02:21:07;;;;;;;8.30;2.00;;;2.10;99.90;;;;;;5074046;28;20048;-47
2023/12/27 02:23:36;;;;;;;10.95;1.92;;;2.10;99.90;;;;;;5074347;28;20048;-45
2023/12/27 02:26:04;;;;;;;8.63;2.08;;;2.70;99.90;;;;;;5073244;28;20431;-45
2023/12/27 02:28:30;;;;;;;9.15;1.95;;;2.00;99.90;;;;;;5074071;28;20049;-45
2023/12/27 02:30:56;;;;;;;9.57;2.03;;;2.00;99.90;;;;;;5074134;28;20107;-45
2023/12/27 02:33:21;;;;;;;9.18;2.10;;;2.00;99.90;;;;;;5074239;28;20037;-45
2023/12/27 02:35:47;;;;;;;8.38;1.73;;;2.90;99.90;;;;;;5074233;28;20528;-45
2023/12/27 02:38:13;;;;;;;11.95;2.10;;;2.70;99.90;;;;;;5074438;28;20135;-47
2023/12/27 02:40:38;;;;;;;8.32;1.92;;;2.20;99.90;;;;;;5073955;28;20044;-46
2023/12/27 02:43:04;;;;;;;10.43;2.78;;;2.80;99.90;;;;;;5074109;28;20044;-45
2023/12/27 02:45:30;;;;;;;9.75;2.22;;;2.50;99.90;;;;;;5072585;28;20370;-46
2023/12/27 02:47:55;;;;;;;11.02;1.98;;;2.00;99.90;;;;;;5073551;28;20419;-47
2023/12/27 02:50:21;;;;;;;14.32;3.25;;;2.70;99.90;;;;;;5073690;28;20055;-51
2023/12/27 02:52:47;;;;;;;9.23;2.03;;;2.30;99.90;;;;;;5072830;28;20119;-50
2023/12/27 02:55:12;;;;;;;10.18;2.28;;;2.00;99.90;;;;;;5073980;28;20089;-47
2023/12/27 02:57:38;;;;;;;10.93;2.28;;;2.50;99.90;;;;;;5073678;28;20048;-47
2023/12/27 03:00:05;;;;;;;13.70;3.20;;;2.20;99.90;;;;;;5072567;28;20044;-46
2023/12/27 03:02:30;;;;;;;8.73;2.90;;;2.20;99.90;;;;;;5073722;28;20400;-46
2023/12/27 03:04:56;;;;;;;11.93;2.30;;;2.50;99.90;;;;;;5073813;28;20033;-47
2023/12/27 03:07:22;;;;;;;11.57;2.45;;;2.00;99.90;;;;;;5073649;28;20385;-45
2023/12/27 03:09:47;;;;;;;9.88;2.00;;;2.70;99.90;;;;;;5073562;28;20467;-47
2023/12/27 03:12:13;;;;;;;10.00;2.40;;;2.00;99.90;;;;;;5073680;28;20506;-45
2023/12/27 03:14:39;;;;;;;11.20;2.22;;;2.00;99.90;;;;;;5072325;28;20469;-46
2023/12/27 03:17:04;;;;;;;8.23;2.10;;;2.10;99.90;;;;;;5073298;28;20405;-47
2023/12/27 03:19:30;;;;;;;9.60;2.40;;;3.10;99.90;;;;;;5072366;28;20049;-47
2023/12/27 03:21:56;;;;;;;8.13;2.08;;;3.10;99.90;;;;;;5071792;28;20544;-46
2023/12/27 03:24:21;;;;;;;9.50;2.55;;;2.60;99.90;;;;;;5072960;28;20401;-46
2023/12/27 03:26:47;;;;;;;10.75;2.53;;;3.10;99.90;;;;;;5071633;28;20048;-48
2023/12/27 03:29:13;;;;;;;12.23;2.30;;;3.00;99.90;;;;;;5073066;28;20046;-49
2023/12/27 03:31:38;;;;;;;7.32;2.50;;;2.60;99.90;;;;;;5072976;28;20123;-46
2023/12/27 03:34:04;;;;;;;10.77;2.30;;;3.20;99.90;;;;;;5073025;28;20115;-48
2023/12/27 03:36:30;;;;;;;9.43;2.45;;;2.70;99.90;;;;;;5072879;28;20074;-48
2023/12/27 03:38:55;;;;;;;10.48;2.55;;;2.20;99.90;;;;;;5072501;28;20044;-48
2023/12/27 03:41:21;;;;;;;9.65;2.00;;;2.10;99.90;;;;;;5072749;28;20040;-48
2023/12/27 03:43:47;;;;;;;10.52;2.63;;;2.90;99.90;;;;;;5073050;28;20041;-46
2023/12/27 03:46:12;;;;;;;9.20;2.50;;;2.20;99.90;;;;;;5071124;28;20083;-47
2023/12/27 03:48:38;;;;;;;14.00;3.80;;;3.20;99.90;;;;;;5072614;28;20044;-46
2023/12/27 03:51:04;;;;;;;13.30;3.42;;;3.30;99.90;;;;;;5072367;28;20064;-47
2023/12/27 03:53:30;;;;;;;10.90;3.45;;;2.90;99.90;;;;;;5072296;28;20082;-49
2023/12/27 03:55:55;;;;;;;8.82;2.53;;;2.50;99.90;;;;;;5071065;28;20072;-45
2023/12/27 03:58:21;;;;;;;7.97;2.38;;;2.10;99.90;;;;;;5072166;28;20534;-47
2023/12/27 04:00:47;;;;;;;11.57;2.20;;;2.10;99.90;;;;;;5072359;28;20036;-49
2023/12/27 04:03:14;;;;;;;12.25;2.55;;;2.80;99.90;;;;;;5072211;28;20063;-48
2023/12/27 04:05:39;;;;;;;12.07;2.60;;;2.70;99.90;;;;;;5072263;28;20102;-49
2023/12/27 04:08:05;;;;;;;11.43;2.50;;;2.10;99.90;;;;;;5072153;28;20044;-47
2023/12/27 04:10:31;;;;;;;11.18;2.65;;;2.90;99.90;;;;;;5072423;28;20123;-49
2023/12/27 04:12:58;;;;;;;9.88;2.45;;;3.10;99.90;;;;;;5072636;28;20041;-49
2023/12/27 04:15:24;;;;;;;9.70;2.78;;;2.80;99.90;;;;;;5054417;28;20369;-46
2023/12/27 04:17:50;;;;;;;8.75;2.38;;;3.30;99.90;;;;;;5072021;28;20043;-48
2023/12/27 04:20:15;;;;;;;10.23;2.53;;;2.10;99.90;;;;;;5072069;28;20039;-47
2023/12/27 04:22:41;;;;;;;6.85;2.35;;;2.20;99.90;;;;;;5072142;28;20049;-49
2023/12/27 04:25:08;;;;;;;10.93;2.25;;;2.10;99.90;;;;;;5072040;28;20040;-48
2023/12/27 04:27:34;;;;;;;9.13;2.90;;;2.80;99.90;;;;;;5070891;28;20072;-49
2023/12/27 04:30:00;;;;;;;10.98;2.20;;;2.10;99.90;;;;;;5072176;28;20507;-47
2023/12/27 04:32:25;;;;;;;14.52;2.70;;;3.30;99.90;;;;;;5071842;28;20129;-49
2023/12/27 04:34:51;;;;;;;11.48;2.38;;;2.20;99.90;;;;;;5071871;28;20178;-47
2023/12/27 04:37:16;;;;;;;15.95;2.90;;;3.30;99.90;;;;;;5071842;28;20055;-46
2023/12/27 04:39:42;;;;;;;13.30;2.90;;;3.30;99.90;;;;;;5071968;28;20048;-46
2023/12/27 04:42:08;;;;;;;10.20;2.67;;;2.10;99.90;;;;;;5071810;28;20041;-45
2023/12/27 04:44:33;;;;;;;8.88;2.42;;;2.20;99.90;;;;;;5071496;28;20172;-47
2023/12/27 04:46:59;;;;;;;9.65;2.10;;;3.00;99.90;;;;;;5071235;28;20131;-46
2023/12/27 04:49:25;;;;;;;8.18;2.90;;;2.80;99.90;;;;;;5071110;28;20094;-45
2023/12/27 04:51:51;;;;;;;7.55;2.40;;;2.20;99.90;;;;;;5071522;28;20562;-46
2023/12/27 04:54:17;;;;;;;12.73;2.83;;;2.80;99.90;;;;;;5071671;28;20051;-45
2023/12/27 04:56:42;;;;;;;9.93;2.38;;;3.10;99.90;;;;;;5071598;28;20040;-45
2023/12/27 04:59:08;;;;;;;10.68;2.38;;;3.00;99.90;;;;;;5071878;28;20120;-46
2023/12/27 05:01:34;;;;;;;12.30;2.53;;;2.30;99.90;;;;;;5070157;28;20045;-47
2023/12/27 05:03:59;;;;;;;9.70;1.92;;;2.20;99.90;;;;;;5071411;28;20037;-46
2023/12/27 05:06:25;;;;;;;8.30;1.98;;;3.30;99.90;;;;;;5071657;28;20392;-47
2023/12/27 05:08:51;;;;;;;11.77;2.58;;;2.90;99.90;;;;;;5071599;28;20415;-46
2023/12/27 05:11:18;;;;;;;9.82;2.28;;;2.30;99.90;;;;;;5070185;28;20437;-46
2023/12/27 05:13:44;;;;;;;10.75;2.80;;;3.30;99.90;;;;;;5071534;28;20037;-47
2023/12/27 05:16:10;;;;;;;11.25;2.38;;;2.60;99.90;;;;;;5070192;28;20097;-48
2023/12/27 05:18:37;;;;;;;10.05;3.13;;;3.00;99.90;;;;;;5071386;28;20036;-46
2023/12/27 05:21:03;;;;;;;13.20;2.80;;;3.30;99.90;;;;;;5071318;28;20063;-47
2023/12/27 05:23:28;;;;;;;12.10;2.47;;;3.30;99.90;;;;;;5071407;28;20421;-45
2023/12/27 05:25:54;;;;;;;9.93;1.88;;;2.20;99.90;;;;;;5071078;28;20089;-46
2023/12/27 05:28:19;;;;;;;11.32;2.60;;;3.00;99.90;;;;;;5071070;28;20074;-49
2023/12/27 05:30:45;;;;;;;7.25;2.33;;;2.30;99.90;;;;;;5071325;28;20041;-50
2023/12/27 05:33:11;;;;;;;11.90;2.25;;;3.20;99.90;;;;;;5070994;28;20154;-46
2023/12/27 05:35:36;;;;;;;10.63;2.55;;;3.30;99.90;;;;;;5071168;28;20048;-48
2023/12/27 05:38:02;;;;;;;7.85;2.38;;;2.30;99.90;;;;;;5071303;28;20040;-45
2023/12/27 05:40:28;;;;;;;12.40;3.15;;;2.20;99.90;;;;;;5070991;28;20044;-49
2023/12/27 05:42:53;;;;;;;10.40;2.70;;;2.40;99.90;;;;;;5071079;28;20476;-49
2023/12/27 05:45:19;;;;;;;13.27;3.85;;;3.30;99.90;;;;;;5071115;28;20041;-48
2023/12/27 05:47:45;;;;;;;13.80;2.80;;;2.30;99.90;;;;;;5070538;28;20053;-47
2023/12/27 05:50:10;;;;;;;9.77;2.85;;;2.70;99.90;;;;;;5071117;28;20127;-47
2023/12/27 05:52:37;;;;;;;11.82;3.85;;;3.00;99.90;;;;;;5071003;28;20118;-50
2023/12/27 05:55:05;;;;;;;11.95;3.30;;;3.20;99.90;;;;;;5071360;28;20112;-46
2023/12/27 05:57:30;;;;;;;10.13;3.05;;;3.40;99.90;;;;;;5069840;28;20042;-46
2023/12/27 05:59:56;;;;;;;11.93;3.80;;;3.50;99.90;;;;;;5071127;28;20040;-47
2023/12/27 06:02:22;;;;;;;9.63;2.88;;;3.00;99.90;;;;;;5073976;28;20132;-50
2023/12/27 06:04:47;;;;;;;11.50;3.35;;;3.50;99.90;;;;;;5073889;28;20479;-47
2023/12/27 06:07:13;;;;;;;9.38;3.13;;;2.30;99.90;;;;;;5073662;28;20469;-47
2023/12/27 06:09:42;;;;;;;14.05;3.13;;;2.70;99.90;;;;;;5073786;28;20032;-46
2023/12/27 06:12:08;;;;;;;12.15;3.63;;;3.20;99.90;;;;;;5073531;28;20445;-48
2023/12/27 06:14:35;;;;;;;12.45;3.60;;;3.60;99.90;;;;;;5073673;28;20032;-47
2023/12/27 06:17:01;;;;;;;11.07;4.80;;;2.50;99.90;;;;;;5073515;28;20447;-49
2023/12/27 06:19:31;;;;;;;11.50;2.78;;;3.50;99.90;;;;;;5073283;28;20044;-49
2023/12/27 06:21:57;;;;;;;9.77;3.58;;;2.70;99.90;;;;;;5073576;28;20090;-48
2023/12/27 06:24:23;;;;;;;11.30;3.10;;;2.50;99.90;;;;;;5073552;28;20049;-46
2023/12/27 06:26:49;;;;;;;11.05;3.10;;;3.50;99.90;;;;;;5073354;28;20067;-49
2023/12/27 06:29:15;;;;;;;9.30;2.85;;;2.50;99.90;;;;;;5073573;28;20465;-48
2023/12/27 06:31:41;;;;;;;13.88;3.15;;;2.90;99.90;;;;;;5073132;28;20041;-45
2023/12/27 06:34:07;;;;;;;11.95;3.08;;;2.70;99.90;;;;;;5073467;28;20040;-49
2023/12/27 06:36:32;;;;;;;10.73;3.00;;;3.30;99.90;;;;;;5072883;28;20040;-46
2023/12/27 06:38:58;;;;;;;15.07;4.28;;;3.50;99.90;;;;;;5073256;28;20045;-49
2023/12/27 06:41:24;;;;;;;13.88;3.33;;;3.10;99.90;;;;;;5073326;28;20093;-47
2023/12/27 06:43:50;;;;;;;15.73;3.72;;;2.70;99.90;;;;;;5072950;28;20075;-46
2023/12/27 06:46:15;;;;;;;9.95;2.70;;;2.60;99.90;;;;;;5072761;28;20467;-48
2023/12/27 06:48:41;;;;;;;10.45;3.22;;;3.70;99.90;;;;;;5072718;28;20048;-47
2023/12/27 06:51:07;;;;;;;12.45;2.92;;;3.90;99.90;;;;;;5073001;28;20033;-46
2023/12/27 06:53:33;;;;;;;9.52;2.80;;;3.00;99.90;;;;;;5072833;28;20174;-45
2023/12/27 06:56:02;;;;;;;12.40;2.95;;;3.60;99.90;;;;;;5072724;28;20048;-60
2023/12/27 06:58:27;;;;;;;13.70;3.40;;;3.70;99.90;;;;;;5072820;28;20548;-60
2023/12/27 07:00:53;;;;;;;11.05;4.35;;;3.90;99.90;;;;;;5072811;28;20066;-59
2023/12/27 07:03:19;;;;;;;13.10;3.65;;;3.10;99.90;;;;;;5072507;28;20658;-60
2023/12/27 07:05:47;;;;;;;11.05;3.10;;;3.90;99.90;;;;;;5072383;28;20507;-59
2023/12/27 07:08:12;;;;;;;16.05;2.80;;;3.90;99.90;;;;;;5072805;28;20516;-60
2023/12/27 07:10:38;;;;;;;10.30;3.53;;;2.90;99.90;;;;;;5070724;28;20072;-60
2023/12/27 07:13:03;;;;;;;13.00;2.85;;;3.80;99.90;;;;;;5071313;28;20441;-60
2023/12/27 07:15:29;;;;;;;14.65;2.92;;;2.80;99.90;;;;;;5072058;28;20040;-60
2023/12/27 07:17:55;;;;;;;11.95;3.90;;;3.40;99.90;;;;;;5071839;28;20080;-59
2023/12/27 07:20:21;;;;;;;9.77;2.17;;;2.90;99.90;;;;;;5071726;28;20048;-60
2023/12/27 07:22:48;;;;;;;11.02;2.67;;;3.10;99.90;;;;;;5072505;28;20040;-59
2023/12/27 07:25:14;;;;;;;10.93;2.20;;;4.10;99.90;;;;;;5070827;28;20045;-60
2023/12/27 07:27:40;;;;;;;9.10;1.88;;;3.40;99.90;;;;;;5062431;28;20047;-60
2023/12/27 07:30:06;;;;;;;9.07;2.15;;;4.00;99.90;;;;;;5061157;28;20037;-60
2023/12/27 07:32:32;;;;;;;6.82;1.98;;;3.00;99.90;;;;;;5053819;28;20063;-46
2023/12/27 07:34:58;;;;;;;8.70;2.13;;;3.80;99.90;;;;;;5065959;28;20033;-47
2023/12/27 07:37:24;;;;;;;8.00;2.55;;;3.40;99.90;;;;;;5071998;28;20036;-47
2023/12/27 07:39:50;;;;;;;17.55;5.63;;;4.20;99.90;;;;;;5071920;28;20059;-46
2023/12/27 07:42:19;;;;;;;11.15;2.08;;;3.10;99.90;;;;;;5071837;28;20118;-48
2023/12/27 07:44:45;;;;;;;6.75;1.92;;;3.70;99.90;;;;;;5071663;28;20120;-49
2023/12/27 07:47:11;;;;;;;5.70;1.75;;;3.30;99.90;;;;;;5071631;28;20131;-46
2023/12/27 07:49:36;;;;;;;7.53;1.38;;;4.30;99.90;;;;;;5070446;28;20055;-45
2023/12/27 07:52:02;;;;;;;6.35;1.50;;;3.70;99.90;;;;;;5052895;28;20471;-47
2023/12/27 07:54:28;;;;;;;6.80;1.40;;;4.30;99.90;;;;;;5070356;28;20048;-46
2023/12/27 07:56:54;;;;;;;9.27;1.48;;;3.60;99.90;;;;;;5072173;28;20055;-48
2023/12/27 07:59:19;;;;;;;7.97;2.85;;;4.40;99.90;;;;;;5071490;28;20505;-47
2023/12/27 08:01:45;;;;;;;11.35;2.15;;;4.00;99.90;;;;;;5071385;28;20036;-46
2023/12/27 08:04:11;;;;;;;8.73;1.60;;;3.40;99.90;;;;;;5071727;28;20055;-50
2023/12/27 08:06:37;;;;;;;5.55;1.30;;;4.30;99.90;;;;;;5071403;28;20048;-46
2023/12/27 08:09:03;;;;;;;7.38;1.85;;;4.40;99.90;;;;;;5071451;28;20036;-47
2023/12/27 08:11:29;;;;;;;6.88;1.98;;;3.50;99.90;;;;;;5070935;28;20045;-46
2023/12/27 08:13:55;;;;;;;10.05;2.75;;;3.80;99.90;;;;;;5070163;28;20542;-47
2023/12/27 08:16:22;;;;;;;12.25;4.22;;;4.60;99.90;;;;;;5071197;28;20036;-48
2023/12/27 08:18:47;;;;;;;8.93;2.60;;;4.60;99.90;;;;;;5071528;28;20044;-47
2023/12/27 08:21:13;;;;;;;10.50;2.70;;;4.50;99.90;;;;;;5071340;28;20059;-49
2023/12/27 08:23:39;;;;;;;12.65;3.30;;;3.50;99.90;;;;;;5071120;28;20083;-47
2023/12/27 08:26:06;;;;;;;9.50;2.03;;;4.20;99.90;;;;;;5070609;28;20489;-50
2023/12/27 08:28:35;;;;;;;12.32;2.22;;;4.60;99.90;;;;;;5069742;28;20072;-46
2023/12/27 08:31:04;;;;;;;7.55;1.90;;;3.60;99.90;;;;;;5071030;28;20044;-50
2023/12/27 08:33:31;;;;;;;5.95;2.05;;;4.70;99.90;;;;;;5071077;28;20037;-46
2023/12/27 08:35:59;;;;;;;14.02;2.47;;;4.60;99.90;;;;;;5071598;28;20051;-49
2023/12/27 08:38:26;;;;;;;10.95;2.25;;;3.70;99.90;;;;;;5070893;28;20063;-50
2023/12/27 08:40:51;;;;;;;7.70;1.90;;;3.70;99.90;;;;;;5071087;28;20045;-49
2023/12/27 08:43:20;;;;;;;11.02;2.70;;;4.70;99.90;;;;;;5070642;28;20560;-47
2023/12/27 08:45:46;;;;;;;7.90;2.03;;;4.40;99.90;;;;;;5070436;28;20044;-50
2023/12/27 08:48:12;;;;;;;6.60;1.95;;;4.30;99.90;;;;;;5070947;28;20238;-45
2023/12/27 08:50:40;;;;;;;9.55;2.40;;;4.40;99.90;;;;;;5070831;28;20045;-49
2023/12/27 08:53:07;;;;;;;11.68;2.75;;;4.80;99.90;;;;;;5071425;28;20040;-46
2023/12/27 08:55:33;;;;;;;9.95;2.97;;;3.80;99.90;;;;;;5070283;28;20080;-47
2023/12/27 08:57:58;;;;;;;10.77;2.75;;;3.70;99.90;;;;;;5070203;28;20093;-49
2023/12/27 09:00:24;;;;;;;8.85;3.50;;;4.80;99.90;;;;;;5070468;28;20040;-47
2023/12/27 09:02:49;;;;;;;28.40;4.32;;;4.10;99.90;;;;;;5070561;28;20370;-47
2023/12/27 09:05:15;;;;;;;11.00;3.60;;;4.50;99.90;;;;;;5070850;28;20044;-48
2023/12/27 09:07:41;;;;;;;13.13;3.15;;;3.70;99.90;;;;;;5070665;28;20053;-47
2023/12/27 09:10:07;;;;;;;12.18;3.50;;;4.70;99.90;;;;;;5070845;28;20068;-47
2023/12/27 09:12:32;;;;;;;9.23;3.05;;;4.90;99.90;;;;;;5070739;28;20087;-47
2023/12/27 09:14:58;;;;;;;13.38;3.15;;;4.10;99.90;;;;;;5070857;28;20159;-46
2023/12/27 09:17:24;;;;;;;12.73;3.38;;;4.40;99.90;;;;;;5070392;28;20109;-48
2023/12/27 09:19:49;;;;;;;9.23;2.88;;;4.60;99.90;;;;;;5070541;28;20110;-49
2023/12/27 09:22:15;;;;;;;10.38;3.08;;;3.80;99.90;;;;;;5070381;28;20036;-48
2023/12/27 09:24:44;;;;;;;14.32;3.60;;;5.00;99.90;;;;;;5070256;28;20396;-50
2023/12/27 09:27:13;;;;;;;10.00;3.08;;;3.80;99.90;;;;;;5070250;28;20053;-47
2023/12/27 09:29:39;;;;;;;11.30;4.55;;;4.80;99.90;;;;;;5052595;28;20043;-47
2023/12/27 09:32:05;;;;;;;12.18;3.22;;;3.80;99.90;;;;;;5070626;28;20520;-46
2023/12/27 09:34:31;;;;;;;8.95;2.90;;;3.90;99.90;;;;;;5070044;28;20075;-47
2023/12/27 09:36:56;;;;;;;15.50;3.17;;;4.50;99.90;;;;;;5072586;28;20120;-46
2023/12/27 09:39:22;;;;;;;10.27;2.80;;;3.90;99.90;;;;;;5073568;28;20055;-45
2023/12/27 09:41:48;;;;;;;11.25;2.53;;;4.70;99.90;;;;;;5073795;28;20391;-45
2023/12/27 09:44:19;;;;;;;9.20;2.63;;;3.90;99.90;;;;;;5073849;28;20048;-46
2023/12/27 09:46:45;;;;;;;10.77;2.90;;;5.00;99.90;;;;;;5073980;28;20135;-47
2023/12/27 09:49:12;;;;;;;12.15;3.17;;;4.20;99.90;;;;;;5074252;28;20124;-46
2023/12/27 09:51:39;;;;;;;9.35;2.28;;;3.90;99.90;;;;;;5056267;28;20849;-50
2023/12/27 09:54:05;;;;;;;10.32;2.72;;;4.60;99.90;;;;;;5073982;28;20036;-48
2023/12/27 09:56:32;;;;;;;11.77;2.38;;;4.00;99.90;;;;;;5073701;28;20036;-47
2023/12/27 09:59:05;;;;;;;10.27;2.53;;;4.00;99.90;;;;;;5074332;28;20116;-48
2023/12/27 10:01:37;;;;;;;11.77;2.28;;;4.00;99.90;;;;;;5073680;28;20036;-47
2023/12/27 10:04:12;;;;;;;9.07;2.28;;;5.10;99.90;;;;;;5073803;28;20052;-49
2023/12/27 10:06:44;;;;;;;8.60;2.67;;;5.20;99.90;;;;;;5073383;28;20119;-49
2023/12/27 10:09:11;;;;;;;10.27;2.40;;;4.10;99.90;;;;;;5073954;28;20532;-48
2023/12/27 10:11:40;;;;;;;9.13;2.35;;;5.10;99.90;;;;;;5074267;28;20044;-45
2023/12/27 10:14:08;;;;;;;8.88;2.22;;;5.30;99.90;;;;;;5074019;28;20508;-47
2023/12/27 10:16:35;;;;;;;12.63;3.05;;;4.40;99.90;;;;;;5073336;28;20111;-46
2023/12/27 10:19:05;;;;;;;11.80;3.03;;;5.40;99.90;;;;;;5074063;28;20104;-45
2023/12/27 10:21:41;;;;;;;13.27;3.00;;;5.50;99.90;;;;;;5074367;28;20195;-45
2023/12/27 10:24:07;;;;;;;9.13;2.72;;;4.80;99.90;;;;;;5073145;28;20098;-46
2023/12/27 10:26:35;;;;;;;11.43;3.17;;;5.60;99.90;;;;;;5074538;28;20378;-48
2023/12/27 10:29:01;;;;;;;10.38;3.53;;;4.50;99.90;;;;;;5074432;28;20119;-47
2023/12/27 10:31:27;;;;;;;10.13;2.58;;;5.40;99.90;;;;;;5073019;28;20044;-45
2023/12/27 10:33:52;;;;;;;12.50;3.58;;;5.70;99.90;;;;;;5074241;28;20043;-48
2023/12/27 10:36:20;;;;;;;16.15;4.13;;;5.70;99.90;;;;;;5074337;28;20040;-47
2023/12/27 10:38:46;;;;;;;17.58;3.78;;;4.50;99.90;;;;;;5074354;28;20059;-48
2023/12/27 10:41:12;;;;;;;14.02;3.20;;;4.80;99.90;;;;;;5074108;28;20048;-46
2023/12/27 10:43:38;;;;;;;11.40;3.38;;;4.50;99.90;;;;;;5073967;28;20120;-46
2023/12/27 10:46:10;;;;;;;13.77;4.32;;;5.90;99.90;;;;;;5072951;28;20384;-46
2023/12/27 10:48:40;;;;;;;10.55;3.80;;;5.10;99.90;;;;;;5060784;28;20049;-45
2023/12/27 10:51:09;;;;;;;12.10;4.30;;;5.70;99.90;;;;;;5074098;28;20044;-46
2023/12/27 10:53:35;;;;;;;13.35;5.03;;;4.60;99.90;;;;;;5073877;28;20032;-47
2023/12/27 10:56:05;;;;;;;13.45;4.25;;;5.90;99.90;;;;;;5074019;28;20037;-46
2023/12/27 10:58:33;;;;;;;15.20;4.85;;;4.70;99.90;;;;;;5073804;28;20080;-47
2023/12/27 11:01:00;;;;;;;13.27;4.43;;;5.20;99.90;;;;;;5074184;28;20445;-48
2023/12/27 11:03:29;;;;;;;11.45;3.95;;;4.90;99.90;;;;;;5070271;28;20110;-51
2023/12/27 11:05:57;;;;;;;11.65;4.53;;;5.90;99.90;;;;;;5064289;28;20036;-48
2023/12/27 11:08:24;;;;;;;11.95;4.78;;;4.60;99.90;;;;;;5063176;28;20048;-48
2023/12/27 11:10:52;;;;;;;16.00;4.15;;;4.60;99.90;;;;;;5062515;28;20507;-47
2023/12/27 11:13:22;;;;;;;15.93;4.75;;;5.90;99.90;;;;;;5059069;28;20485;-49
2023/12/27 11:15:51;;;;;;;15.90;4.85;;;4.70;99.90;;;;;;5053862;28;20575;-46
2023/12/27 11:18:18;;;;;;;15.57;5.50;;;5.20;99.90;;;;;;5053668;28;20055;-50
2023/12/27 11:20:47;;;;;;;14.75;5.70;;;5.10;99.90;;;;;;5053451;28;20037;-50
2023/12/27 11:23:13;;;;;;;12.63;5.72;;;5.10;99.90;;;;;;5057801;28;20067;-48
2023/12/27 11:25:38;;;;;;;20.38;5.78;;;6.00;99.90;;;;;;5072518;28;20485;-47
2023/12/27 11:28:05;;;;;;;15.85;5.55;;;4.60;99.90;;;;;;5073557;28;20052;-48
2023/12/27 11:30:32;;;;;;;10.77;5.22;;;6.00;99.90;;;;;;5073677;28;20032;-49
2023/12/27 11:32:58;;;;;;;13.27;5.97;;;6.00;99.90;;;;;;5073381;28;20032;-46
2023/12/27 11:35:33;;;;;;;16.85;5.53;;;4.60;99.90;;;;;;5072502;28;20374;-46
2023/12/27 11:38:15;;;;;;;14.25;4.95;;;4.60;99.90;;;;;;5073623;28;20044;-47
2023/12/27 11:40:45;;;;;;;11.32;5.43;;;5.70;99.90;;;;;;5072248;28;20048;-46
2023/12/27 11:43:19;;;;;;;14.23;6.15;;;6.00;99.90;;;;;;5073263;28;20040;-46
2023/12/27 11:46:02;;;;;;;15.90;5.43;;;5.70;99.90;;;;;;5071775;28;20078;-47
2023/12/27 11:48:37;;;;;;;16.35;5.85;;;4.60;99.90;;;;;;5072705;28;20436;-48
2023/12/27 11:51:30;;;;;;;13.38;5.38;;;4.60;99.90;;;;;;5073212;28;20040;-47
2023/12/27 11:53:56;;;;;;;;;;;6.00;99.90;;;;;;5073705;28;20037;-46
2023/12/27 11:56:22;;;;;;;14.75;4.72;;;6.00;99.90;;;;;;5072941;28;19982;-46
2023/12/27 11:58:49;;;;;;;11.80;4.68;;;6.00;99.90;;;;;;5072915;28;20105;-48
2023/12/27 12:01:30;;;;;;;16.02;5.57;;;4.60;99.90;;;;;;5072905;28;20071;-46
2023/12/27 12:04:18;;;;;;;17.58;5.70;;;6.00;99.90;;;;;;5072232;28;20048;-45
2023/12/27 12:06:56;;;;;;;16.85;5.82;;;4.90;99.90;;;;;;5072081;28;20488;-46
2023/12/27 12:09:34;;;;;;;17.35;6.80;;;6.10;99.90;;;;;;5064805;28;20040;-46
2023/12/27 12:12:11;;;;;;;17.80;6.50;;;6.10;99.90;;;;;;5062038;28;20029;-47
2023/12/27 12:14:39;;;;;;;17.92;7.03;;;4.40;99.90;;;;;;5053202;28;20128;-47
2023/12/27 12:17:07;;;;;;;21.50;6.20;;;4.30;99.90;;;;;;5051226;28;20056;-47
2023/12/27 12:19:34;;;;;;;15.07;6.57;;;5.00;99.90;;;;;;5054490;28;20493;-47
2023/12/27 12:22:01;;;;;;;18.10;6.10;;;4.30;99.90;;;;;;5058813;28;20047;-47
2023/12/27 12:24:27;;;;;;;19.35;7.05;;;5.40;99.90;;;;;;5052621;28;20396;-49
2023/12/27 12:26:54;;;;;;;16.92;6.10;;;4.60;99.90;;;;;;5052702;28;20037;-47
2023/12/27 12:29:26;;;;;;;17.83;6.68;;;6.10;99.90;;;;;;5052736;28;20072;-47
2023/12/27 12:31:56;;;;;;;14.73;6.47;;;4.30;99.90;;;;;;5051255;28;20040;-47
2023/12/27 12:34:25;;;;;;;18.50;7.10;;;4.30;99.90;;;;;;5052505;28;20088;-48
2023/12/27 12:36:54;;;;;;;15.93;7.40;;;5.20;99.90;;;;;;5052566;28;20119;-47
2023/12/27 12:39:21;;;;;;;19.15;7.32;;;4.20;99.90;;;;;;5052502;28;20049;-46
2023/12/27 12:41:47;;;;;;;15.57;6.25;;;4.30;99.90;;;;;;5052550;28;20393;-50
2023/12/27 12:44:13;;;;;;;15.98;6.78;;;4.40;99.90;;;;;;5052443;28;20033;-45
2023/12/27 12:46:40;;;;;;;19.60;8.40;;;5.40;99.90;;;;;;5051843;28;20036;-49